Latest Weather Observations for Gold Coast Seaway

IDQ60801

Issued at 11:32 pm EST Friday 3 July 2015 (issued every 30 minutes, with the page automatically refreshed every 10 minutes)

About weather observations | Map of weather stations | Latest weather observations for QLD | Other Formats
Station Details ID: 040764 Name: GOLD COAST SEAWAY Lat: -27.94 Lon: 153.43 Height: 2.98 m
Data from the previous 72 hours. | See also: Recent months at Gold Coast Seaway
Date/Time
EST
Temp
°C
App
Temp
°C
Dew
Point
Rel
Hum
%
Delta-T
°C
Wind Press
QNH
hPa
Press
MSL
hPa
Rain
since 9 am
mm
Dir
 
Spd
km/h
Gust
km/h
Spd
kts
Gust
kts
03/11:00pm 14.2 11.5 9.0 71 2.6 SSW 13 19 7 10 1023.3 1023.3 0.0
03/10:30pm 13.0 10.9 8.3 73 2.3 SSW 9 11 5 6 1023.4 1023.4 0.0
03/10:00pm 14.1 11.8 8.9 71 2.6 SSW 11 15 6 8 1023.5 1023.5 0.0
03/09:30pm 14.1 11.8 8.9 71 2.6 SSW 11 17 6 9 1023.3 1023.3 0.0
03/09:00pm 14.6 11.2 9.2 70 2.7 SSW 17 22 9 12 1023.1 1023.1 0.0
03/08:30pm 13.8 10.5 8.2 69 2.8 S 15 20 8 11 1022.9 1022.9 0.0
03/08:00pm 14.3 11.9 8.7 69 2.8 SW 11 15 6 8 1022.9 1022.9 0.0
03/07:30pm 14.9 12.4 8.4 65 3.3 SSW 11 15 6 8 1022.8 1022.8 0.0
03/07:00pm 15.5 12.7 8.5 63 3.5 S 13 17 7 9 1022.7 1022.7 0.0
03/06:30pm 15.3 12.5 8.5 64 3.4 S 13 20 7 11 1022.4 1022.4 0.0
03/06:00pm 15.0 11.8 8.3 64 3.4 S 15 19 8 10 1022.3 1022.3 0.0
03/05:30pm 15.4 12.0 7.7 60 3.8 S 15 20 8 11 1022.0 1022.0 0.0
03/05:00pm 16.2 12.5 7.9 58 4.2 S 17 24 9 13 1021.7 1021.7 0.0
03/04:30pm 17.3 12.6 7.6 53 4.9 S 22 30 12 16 1021.5 1021.5 0.0
03/04:00pm 18.2 13.9 7.9 51 5.2 S 20 30 11 16 1021.2 1021.2 0.0
03/03:30pm 18.8 14.1 7.6 48 5.7 S 22 32 12 17 1021.0 1021.0 0.0
03/03:00pm 19.1 13.6 7.5 47 5.9 S 26 33 14 18 1020.8 1020.8 0.0
03/02:30pm 19.0 13.6 7.8 48 5.7 S 26 35 14 19 1020.7 1020.7 0.0
03/02:00pm 19.3 14.4 8.6 50 5.5 S 24 30 13 16 1020.7 1020.7 0.0
03/01:30pm 19.6 14.6 8.0 47 6.0 SSE 24 33 13 18 1021.0 1021.0 0.0
03/01:00pm 19.5 14.1 7.9 47 5.9 S 26 35 14 19 1021.0 1021.0 0.0
03/12:30pm 18.7 11.7 6.2 44 6.2 SSE 32 37 17 20 1021.4 1021.4 0.0
03/12:00pm 19.3 13.9 8.0 48 5.8 SSE 26 35 14 19 1021.7 1021.7 0.0
03/11:30am 18.3 12.8 5.8 44 6.1 S 24 32 13 17 1022.1 1022.1 0.0
03/11:00am 18.4 12.9 5.9 44 6.1 S 24 33 13 18 1022.4 1022.4 0.0
03/10:30am 17.7 11.8 5.6 45 5.8 S 26 33 14 18 1022.5 1022.5 0.0
03/10:00am 17.1 11.4 5.1 45 5.7 S 24 32 13 17 1022.5 1022.5 0.0
03/09:30am 16.3 9.7 4.4 45 5.6 S 28 41 15 22 1022.5 1022.5 0.0
03/09:08am 15.7 9.0 3.8 45 5.5 S 28 46 15 25 1022.4 1022.4 0.0
03/09:00am 15.8 10.3 4.2 46 5.4 S 22 35 12 19 1022.4 1022.4 0.0
03/08:30am 14.8 8.8 3.3 46 5.2 S 24 35 13 19 1022.1 1022.1 0.0
03/08:00am 14.1 8.1 3.3 48 4.8 S 24 37 13 20 1021.8 1021.8 0.0
03/07:30am 13.2 7.5 3.0 50 4.5 S 22 32 12 17 1021.5 1021.5 0.0
03/07:00am 12.3 6.1 2.2 50 4.3 S 24 35 13 19 1021.4 1021.4 0.0
03/06:30am 12.4 6.1 1.4 47 4.7 S 24 35 13 19 1021.1 1021.1 0.0
03/06:00am 12.4 6.5 1.7 48 4.6 S 22 33 12 18 1020.6 1020.6 0.0
03/05:30am 11.9 6.3 1.3 48 4.5 S 20 30 11 16 1020.3 1020.3 0.0
03/05:00am 12.0 6.7 1.6 49 4.4 S 19 32 10 17 1020.1 1020.1 0.0
03/04:30am 11.3 7.2 2.1 53 3.9 SSW 13 22 7 12 1019.7 1019.7 0.0
03/04:00am 9.3 6.1 3.1 65 2.6 SW 9 15 5 8 1019.6 1019.6 0.0
03/03:30am 10.3 6.7 2.9 60 3.2 SW 11 17 6 9 1019.5 1019.5 0.0
03/03:00am 10.2 6.7 3.7 64 2.8 W 11 13 6 7 1019.6 1019.6 0.0
03/02:30am 10.7 6.8 3.3 60 3.2 W 13 15 7 8 1019.6 1019.6 0.0
03/02:00am 10.7 6.7 2.8 58 3.4 WNW 13 17 7 9 1019.6 1019.6 0.0
03/01:30am 11.3 6.4 2.3 54 3.9 WNW 17 20 9 11 1019.6 1019.6 0.0
03/01:00am 10.8 6.7 2.4 56 3.6 W 13 15 7 8 1019.4 1019.4 0.0
03/12:30am 10.0 6.2 1.6 56 3.5 WSW 11 13 6 7 1019.5 1019.5 0.0
03/12:00am 9.1 5.9 1.0 57 3.3 W 7 11 4 6 1019.3 1019.3 0.0
 
Date/Time
EST
Temp
°C
App
Temp
°C
Dew
Point
Rel
Hum
%
Delta-T
°C
Wind Press
QNH
hPa
Press
MSL
hPa
Rain
since 9 am
mm
Dir
 
Spd
km/h
Gust
km/h
Spd
kts
Gust
kts
02/11:30pm 10.7 7.2 1.0 51 4.0 WNW 9 13 5 7 1019.2 1019.2 0.0
02/11:00pm 11.5 7.7 1.7 51 4.1 WNW 11 13 6 7 1019.1 1019.1 0.0
02/10:30pm 12.4 7.3 2.8 52 4.2 W 19 24 10 13 1019.2 1019.2 0.0
02/10:00pm 12.3 7.8 4.0 57 3.7 WNW 17 22 9 12 1019.1 1019.1 0.0
02/09:30pm 13.5 8.0 3.8 52 4.4 NW 22 28 12 15 1018.8 1018.8 0.0
02/09:00pm 14.3 9.9 2.9 46 5.1 NW 15 20 8 11 1018.6 1018.6 0.0
02/08:30pm 14.2 8.8 4.5 52 4.5 NW 22 30 12 16 1018.8 1018.8 0.0
02/08:00pm 14.6 9.2 4.6 51 4.6 NW 22 28 12 15 1018.5 1018.5 0.0
02/07:30pm 14.6 10.3 5.1 53 4.5 NNW 17 20 9 11 1018.1 1018.1 0.0
02/07:00pm 15.1 10.2 3.9 47 5.1 NNW 19 24 10 13 1018.0 1018.0 0.0
02/06:30pm 16.1 11.7 4.8 47 5.3 NNW 17 24 9 13 1017.9 1017.9 0.0
02/06:00pm 17.1 12.3 5.4 46 5.6 NW 20 28 11 15 1017.6 1017.6 0.0
02/05:30pm 17.3 12.9 6.5 49 5.3 NW 19 26 10 14 1017.5 1017.5 0.0
02/05:00pm 17.8 12.9 7.0 49 5.4 NW 22 30 12 16 1017.3 1017.3 0.0
02/04:30pm 18.8 14.9 8.5 51 5.3 NW 19 24 10 13 1017.2 1017.2 0.0
02/04:00pm 19.0 15.3 8.1 49 5.6 WNW 17 20 9 11 1017.2 1017.2 0.0
02/03:30pm 19.8 16.2 8.2 47 6.0 WNW 17 24 9 13 1017.0 1017.0 0.0
02/03:00pm 19.9 15.9 9.2 50 5.6 WNW 20 26 11 14 1017.1 1017.1 0.0
02/02:30pm 19.8 16.7 14.4 71 3.1 NW 24 28 13 15 1017.3 1017.3 0.0
02/02:00pm 19.3 15.2 12.6 65 3.8 NW 26 32 14 17 1017.1 1017.1 0.0
02/01:30pm 19.6 16.1 15.5 77 2.4 NW 28 33 15 18 1017.4 1017.4 0.0
02/01:00pm 19.7 17.8 15.8 78 2.3 NW 20 28 11 15 1017.7 1017.7 0.0
02/12:30pm 20.3 18.4 15.3 73 3.0 NW 19 24 10 13 1018.2 1018.2 0.0
02/12:00pm 21.0 21.1 17.4 80 2.2 WNW 13 17 7 9 1018.7 1018.7 0.0
02/11:30am 20.1 19.4 16.3 79 2.3 WNW 15 20 8 11 1019.4 1019.4 0.0
02/11:00am 19.9 17.4 12.4 62 4.2 WNW 17 20 9 11 1020.2 1020.2 0.0
02/10:30am 19.4 18.1 15.9 80 2.1 NW 17 22 9 12 1020.6 1020.6 0.0
02/10:00am 18.7 18.0 16.5 87 1.3 NW 15 17 8 9 1021.0 1021.0 0.0
02/09:30am 18.2 19.7 17.7 97 0.3 W 6 13 3 7 1021.6 1021.6 0.0
02/09:00am 16.8 19.0 16.6 99 0.1 CALM 0 0 0 0 1021.1 1021.1 0.0
02/08:30am 15.6 17.0 15.3 98 0.2 WSW 2 7 1 4 1021.1 1021.1 0.0
02/08:00am 14.8 13.8 14.6 99 0.1 W 13 13 7 7 1020.9 1020.9 0.0
02/07:30am 13.9 12.6 13.7 99 0.1 WNW 13 15 7 8 1020.6 1020.6 0.0
02/07:00am 13.1 11.5 12.9 99 0.1 WNW 13 15 7 8 1020.6 1020.6 0.0
02/06:30am 13.1 11.2 12.9 99 0.1 W 15 17 8 9 1020.3 1020.3 0.0
02/06:00am 13.1 11.5 12.9 99 0.1 WNW 13 15 7 8 1019.9 1019.9 0.0
02/05:30am 13.2 11.7 13.0 99 0.1 WNW 13 15 7 8 1020.0 1020.0 0.0
02/05:00am 13.4 12.3 13.2 99 0.1 WNW 11 15 6 8 1019.9 1019.9 0.0
02/04:30am 13.6 12.2 13.4 99 0.1 WNW 13 15 7 8 1019.9 1019.9 0.0
02/04:00am 13.8 12.1 13.6 99 0.1 WNW 15 17 8 9 1020.2 1020.2 0.0
02/03:30am 13.9 13.1 13.9 100 0.0 WNW 11 13 6 7 1020.2 1020.2 0.0
02/03:00am 13.8 12.9 13.8 100 0.0 WNW 11 13 6 7 1020.4 1020.4 0.0
02/02:30am 13.9 13.4 13.9 100 0.0 WSW 9 9 5 5 1020.3 1020.3 0.0
02/02:00am 13.5 13.3 13.5 100 0.0 SW 7 9 4 5 1020.4 1020.4 0.0
02/01:30am 14.1 14.0 13.9 99 0.1 SW 7 9 4 5 1020.6 1020.6 0.0
02/01:00am 14.6 14.3 14.4 99 0.1 W 9 11 5 6 1020.6 1020.6 0.0
02/12:30am 15.2 14.7 15.0 99 0.1 SW 11 17 6 9 1020.8 1020.8 0.0
02/12:00am 15.8 16.3 15.6 99 0.1 W 7 9 4 5 1021.2 1021.2 0.0
 
Date/Time
EST
Temp
°C
App
Temp
°C
Dew
Point
Rel
Hum
%
Delta-T
°C
Wind Press
QNH
hPa
Press
MSL
hPa
Rain
since 9 am
mm
Dir
 
Spd
km/h
Gust
km/h
Spd
kts
Gust
kts
01/11:30pm 15.9 15.7 15.7 99 0.1 W 11 13 6 7 1021.2 1021.2 0.0
01/11:00pm 16.1 15.6 15.9 99 0.1 W 13 15 7 8 1021.6 1021.6 0.0
01/10:30pm 15.8 15.2 15.6 99 0.1 WSW 13 15 7 8 1021.7 1021.7 0.0
01/10:00pm 15.9 15.7 15.7 99 0.1 SW 11 13 6 7 1021.8 1021.8 0.0
01/09:30pm 16.3 16.2 16.1 99 0.1 WSW 11 13 6 7 1022.0 1022.0 0.0
01/09:00pm 16.5 16.5 16.3 99 0.1 SW 11 15 6 8 1022.0 1022.0 0.0
01/08:30pm 16.6 16.7 16.4 99 0.1 SSW 11 15 6 8 1021.9 1021.9 0.0
01/08:00pm 16.7 16.8 16.5 99 0.1 SSW 11 15 6 8 1021.8 1021.8 0.0
01/07:30pm 17.2 17.8 16.7 97 0.3 SW 9 15 5 8 1021.7 1021.7 0.0
01/07:00pm 17.4 17.8 16.4 94 0.6 S 9 15 5 8 1021.6 1021.6 0.0
01/06:30pm 17.5 17.7 15.8 90 1.0 ESE 9 11 5 6 1021.2 1021.2 0.0
01/06:00pm 17.8 17.9 15.4 86 1.4 ESE 9 9 5 5 1021.0 1021.0 0.0
01/05:30pm 18.8 19.0 15.7 82 1.8 E 9 13 5 7 1020.7 1020.7 0.0
01/05:00pm 19.1 18.8 14.4 74 2.7 ENE 9 13 5 7 1020.6 1020.6 0.0
01/04:30pm 19.9 19.1 14.0 69 3.4 ENE 11 13 6 7 1020.5 1020.5 0.0
01/04:00pm 20.0 19.2 13.9 68 3.5 E 11 17 6 9 1020.4 1020.4 0.0
01/03:30pm 20.5 19.1 13.5 64 4.0 E 13 19 7 10 1020.5 1020.5 0.0
01/03:00pm 20.5 19.0 13.2 63 4.1 E 13 17 7 9 1020.5 1020.5 0.0
01/02:30pm 21.0 19.5 13.2 61 4.5 ENE 13 17 7 9 1020.6 1020.6 0.0
01/02:00pm 21.8 20.1 13.7 60 4.7 NE 15 15 8 8 1020.6 1020.6 0.0
01/01:30pm 21.8 20.3 13.2 58 4.9 NE 13 15 7 8 1021.0 1021.0 0.0
01/01:00pm 21.6 20.2 12.2 55 5.3 ENE 11 13 6 7 1021.3 1021.3 0.0
01/12:30pm 21.1 19.7 12.3 57 5.0 NE 11 13 6 7 1021.8 1021.8 0.0
01/12:00pm 21.0 19.9 11.9 56 5.1 E 9 11 5 6 1022.4 1022.4 0.0
01/11:30am 21.2 20.6 13.4 61 4.5 SE 9 11 5 6 1023.0 1023.0 0.0
01/11:00am 21.3 20.5 13.0 59 4.7 ESE 9 11 5 6 1023.4 1023.4 0.0
01/10:30am 20.7 22.6 17.7 83 1.8 SW 4 9 2 5 1023.8 1023.8 0.0
01/10:00am 19.7 20.9 17.3 86 1.5 WSW 7 9 4 5 1024.0 1024.0 0.0
01/09:30am 18.8 20.5 18.5 98 0.2 W 7 7 4 4 1024.1 1024.1 0.0
01/09:00am 17.9 19.3 17.7 99 0.1 W 7 9 4 5 1024.1 1024.1 0.0
01/08:30am 16.1 16.0 15.9 99 0.1 W 11 13 6 7 1024.0 1024.0 0.0
01/08:00am 15.3 14.6 15.3 100 0.0 WNW 13 15 7 8 1024.0 1024.0 0.0
01/07:30am 15.1 14.3 15.1 100 0.0 WNW 13 15 7 8 1023.7 1023.7 0.0
01/07:00am 14.9 14.4 14.9 100 0.0 WNW 11 13 6 7 1023.4 1023.4 0.0
01/06:30am 14.5 14.2 14.5 100 0.0 WSW 9 13 5 7 1023.2 1023.2 0.0
01/06:00am 14.4 13.3 14.4 100 0.0 W 13 15 7 8 1023.2 1023.2 0.0
01/05:30am 14.3 13.6 14.3 100 0.0 WSW 11 13 6 7 1022.8 1022.8 0.0
01/05:00am 14.1 12.9 14.1 100 0.0 SW 13 15 7 8 1022.6 1022.6 0.0
01/04:30am 14.2 13.1 14.2 100 0.0 SW 13 15 7 8 1022.7 1022.7 0.0
01/04:00am 14.4 13.7 14.4 100 0.0 SW 11 13 6 7 1022.9 1022.9 0.0
01/03:30am 14.5 14.2 14.5 100 0.0 SW 9 13 5 7 1023.2 1023.2 0.0
01/03:00am 14.5 13.5 14.5 100 0.0 SW 13 15 7 8 1023.4 1023.4 0.0
01/02:30am 14.6 14.0 14.6 100 0.0 WSW 11 13 6 7 1023.7 1023.7 0.0
01/02:00am 14.8 14.3 14.8 100 0.0 W 11 13 6 7 1024.0 1024.0 0.0
01/01:30am 14.9 14.0 14.9 100 0.0 SW 13 15 7 8 1024.2 1024.2 0.0
01/01:00am 14.9 14.4 14.9 100 0.0 WSW 11 13 6 7 1024.4 1024.4 0.0
01/12:30am 15.2 15.2 15.2 100 0.0 WSW 9 13 5 7 1024.6 1024.6 0.0
01/12:00am 15.1 15.1 15.1 100 0.0 WSW 9 13 5 7 1024.8 1024.8 0.0

Other Formats:

Comma delimited format used in spreadsheet applications
http://www.bom.gov.au/fwo/IDQ60801/IDQ60801.94580.axf

JavaScript Object Notation format (JSON) in row-major order
http://www.bom.gov.au/fwo/IDQ60801/IDQ60801.94580.json